createdAt,value
2019-05-25T00:09:23.509Z,22.65
2019-05-25T00:19:27.067Z,22.48
2019-05-25T00:29:30.632Z,22.38
2019-05-25T00:39:34.195Z,22.33
2019-05-25T00:49:39.340Z,22.22
2019-05-25T00:59:42.904Z,22.16
2019-05-25T01:09:46.505Z,22.07
2019-05-25T01:19:50.136Z,22.01
2019-05-25T01:29:53.682Z,21.92
2019-05-25T01:39:57.231Z,21.89
2019-05-25T01:50:00.791Z,21.83
2019-05-25T02:00:06.254Z,21.76
2019-05-25T02:10:12.135Z,21.73
2019-05-25T02:20:16.031Z,21.70
2019-05-25T02:30:19.557Z,21.65
2019-05-25T02:40:23.115Z,21.59
2019-05-25T02:50:26.759Z,22.57
2019-05-25T03:00:34.243Z,23.82
2019-05-25T03:10:37.782Z,23.39
2019-05-25T03:20:41.343Z,23.26
2019-05-25T03:30:44.880Z,23.12
2019-05-25T03:40:48.440Z,23.05
2019-05-25T03:50:52.058Z,24.65
2019-05-25T04:00:55.616Z,24.21
2019-05-25T04:10:59.182Z,24.15
2019-05-25T04:21:02.750Z,23.90
2019-05-25T04:31:06.324Z,23.78
2019-05-25T04:41:09.883Z,23.68
2019-05-25T04:51:13.472Z,23.62
2019-05-25T05:01:17.034Z,23.72
2019-05-25T05:11:20.614Z,23.84
2019-05-25T05:21:24.237Z,23.93
2019-05-25T05:31:27.815Z,23.96
2019-05-25T05:41:31.461Z,24.01
2019-05-25T05:51:36.125Z,24.04
2019-05-25T06:01:39.694Z,24.06
2019-05-25T06:11:43.262Z,24.23
2019-05-25T06:21:46.844Z,24.28
2019-05-25T06:31:50.396Z,24.33
2019-05-25T06:41:53.964Z,24.41
2019-05-25T06:51:57.504Z,24.61
2019-05-25T07:02:01.158Z,24.67
2019-05-25T07:12:04.726Z,24.76
2019-05-25T07:22:08.313Z,24.58
2019-05-25T07:32:11.855Z,24.26
2019-05-25T07:42:15.422Z,24.09
2019-05-25T07:52:18.998Z,24.23
2019-05-25T08:02:22.567Z,24.17
2019-05-25T08:12:26.097Z,24.38
2019-05-25T08:22:29.706Z,24.63
2019-05-25T08:32:33.276Z,24.60
2019-05-25T08:42:36.864Z,24.78
2019-05-25T08:52:40.437Z,24.68
2019-05-25T09:02:44.649Z,24.72
2019-05-25T09:12:48.227Z,24.90
2019-05-25T09:22:51.838Z,24.84
2019-05-25T09:32:55.404Z,24.74
2019-05-25T09:42:58.957Z,24.61
2019-05-25T09:53:02.525Z,24.61
2019-05-25T10:03:08.217Z,24.54
2019-05-25T10:13:11.892Z,24.71
2019-05-25T10:23:15.601Z,24.70
2019-05-25T10:33:21.743Z,24.58
2019-05-25T10:43:24.581Z,24.52
2019-05-25T10:53:29.134Z,24.39
2019-05-25T11:03:32.679Z,24.17
2019-05-25T11:13:37.486Z,24.18
2019-05-25T11:23:41.059Z,24.17
2019-05-25T11:33:44.688Z,24.11
2019-05-25T11:43:48.225Z,24.08
2019-05-25T11:53:51.784Z,24.09
2019-05-25T12:03:55.319Z,24.15
2019-05-25T12:13:58.905Z,24.16
2019-05-25T12:24:02.686Z,24.06
2019-05-25T12:34:06.234Z,24.21
2019-05-25T12:44:09.784Z,24.23
2019-05-25T12:54:13.354Z,24.20
2019-05-25T13:04:16.898Z,24.19
2019-05-25T13:14:20.485Z,24.17
2019-05-25T13:24:24.074Z,24.15
2019-05-25T13:34:27.644Z,24.15
2019-05-25T13:44:31.193Z,24.12
2019-05-25T13:54:34.775Z,24.18
2019-05-25T14:04:38.319Z,24.18
2019-05-25T14:14:41.907Z,24.16
2019-05-25T14:24:45.471Z,24.22
2019-05-25T14:34:49.003Z,24.25
2019-05-25T14:44:52.543Z,24.21
2019-05-25T14:54:56.497Z,24.23
2019-05-25T15:05:00.087Z,24.22
2019-05-25T15:15:04.865Z,24.28
2019-05-25T15:25:08.848Z,24.26
2019-05-25T15:35:12.406Z,24.27
2019-05-25T15:45:16.511Z,24.28
2019-05-25T15:55:20.052Z,24.32
2019-05-25T16:05:23.990Z,24.37
2019-05-25T16:15:28.283Z,24.44
2019-05-25T16:25:32.002Z,24.47
2019-05-25T16:35:35.939Z,24.49
2019-05-25T16:45:40.084Z,24.50
2019-05-25T16:55:44.281Z,24.51
2019-05-25T17:05:47.846Z,24.48
2019-05-25T17:15:51.449Z,24.50
2019-05-25T17:25:55.082Z,24.43
2019-05-25T17:35:58.740Z,24.39
2019-05-25T17:46:02.295Z,24.36
2019-05-25T17:56:05.952Z,24.41
2019-05-25T18:06:09.633Z,24.42
2019-05-25T18:16:13.884Z,24.39
2019-05-25T18:26:17.408Z,24.32
2019-05-25T18:36:21.092Z,24.21
2019-05-25T18:46:24.985Z,24.06
2019-05-25T18:56:28.564Z,24.00
2019-05-25T19:06:32.912Z,23.96
2019-05-25T19:16:36.486Z,23.84
2019-05-25T19:26:40.102Z,23.69
2019-05-25T19:36:43.674Z,23.65
2019-05-25T19:46:47.271Z,23.60
2019-05-25T19:56:50.921Z,23.53
2019-05-25T20:06:55.419Z,23.41
2019-05-25T20:16:58.976Z,23.40
2019-05-25T20:27:02.626Z,23.29
2019-05-25T20:37:06.221Z,23.24
2019-05-25T20:47:09.828Z,23.18
2019-05-25T20:57:13.381Z,23.13
2019-05-25T21:07:16.964Z,23.08
2019-05-25T21:17:20.776Z,23.02
2019-05-25T21:27:24.403Z,23.01
2019-05-25T21:37:27.977Z,22.98
2019-05-25T21:47:31.586Z,22.95
2019-05-25T21:57:35.150Z,22.90
2019-05-25T22:07:39.048Z,22.89
2019-05-25T22:17:42.599Z,22.85
2019-05-25T22:27:46.138Z,22.82
2019-05-25T22:37:49.901Z,22.76
2019-05-25T22:47:53.634Z,22.74
2019-05-25T22:57:57.202Z,22.67
2019-05-25T23:08:00.750Z,22.64
2019-05-25T23:18:04.886Z,22.63
2019-05-25T23:28:08.460Z,22.60
2019-05-25T23:38:12.043Z,22.54
2019-05-25T23:48:15.633Z,22.53
2019-05-25T23:58:19.253Z,24.40
